sensor_id;sensor_type;location;lat;lon;timestamp;P1;durP1;ratioP1;P2;durP2;ratioP2
54454;SDS011;40364;52.270;10.546;2023-09-19T00:00:04;1.52;;;0.70;;
54454;SDS011;40364;52.270;10.546;2023-09-19T00:02:38;3.33;;;1.05;;
54454;SDS011;40364;52.270;10.546;2023-09-19T00:05:06;1.40;;;0.70;;
54454;SDS011;40364;52.270;10.546;2023-09-19T00:07:34;1.33;;;0.80;;
54454;SDS011;40364;52.270;10.546;2023-09-19T00:10:02;2.28;;;1.05;;
54454;SDS011;40364;52.270;10.546;2023-09-19T00:12:29;2.40;;;0.82;;
54454;SDS011;40364;52.270;10.546;2023-09-19T00:14:56;6.38;;;0.95;;
54454;SDS011;40364;52.270;10.546;2023-09-19T00:17:24;1.90;;;1.25;;
54454;SDS011;40364;52.270;10.546;2023-09-19T00:19:52;2.67;;;0.80;;
54454;SDS011;40364;52.270;10.546;2023-09-19T00:22:18;1.20;;;0.80;;
54454;SDS011;40364;52.270;10.546;2023-09-19T00:24:45;2.85;;;0.90;;
54454;SDS011;40364;52.270;10.546;2023-09-19T00:27:12;1.65;;;1.02;;
54454;SDS011;40364;52.270;10.546;2023-09-19T00:29:39;4.53;;;0.82;;
54454;SDS011;40364;52.270;10.546;2023-09-19T00:32:06;4.47;;;0.82;;
54454;SDS011;40364;52.270;10.546;2023-09-19T00:34:33;3.17;;;1.00;;
54454;SDS011;40364;52.270;10.546;2023-09-19T00:37:02;2.72;;;0.88;;
54454;SDS011;40364;52.270;10.546;2023-09-19T00:39:29;1.85;;;1.10;;
54454;SDS011;40364;52.270;10.546;2023-09-19T00:41:56;3.13;;;0.93;;
54454;SDS011;40364;52.270;10.546;2023-09-19T00:44:23;1.48;;;0.90;;
54454;SDS011;40364;52.270;10.546;2023-09-19T00:46:49;3.33;;;0.90;;
54454;SDS011;40364;52.270;10.546;2023-09-19T00:49:16;1.52;;;0.80;;
54454;SDS011;40364;52.270;10.546;2023-09-19T00:51:45;3.05;;;1.00;;
54454;SDS011;40364;52.270;10.546;2023-09-19T00:54:14;2.47;;;1.02;;
54454;SDS011;40364;52.270;10.546;2023-09-19T00:56:43;3.00;;;0.90;;
54454;SDS011;40364;52.270;10.546;2023-09-19T00:59:11;3.38;;;0.70;;
54454;SDS011;40364;52.270;10.546;2023-09-19T01:01:38;1.60;;;0.77;;
54454;SDS011;40364;52.270;10.546;2023-09-19T01:04:05;2.20;;;0.90;;
54454;SDS011;40364;52.270;10.546;2023-09-19T01:06:32;4.18;;;0.70;;
54454;SDS011;40364;52.270;10.546;2023-09-19T01:08:59;3.65;;;0.90;;
54454;SDS011;40364;52.270;10.546;2023-09-19T01:11:31;5.43;;;0.70;;
54454;SDS011;40364;52.270;10.546;2023-09-19T01:14:02;1.92;;;0.90;;
54454;SDS011;40364;52.270;10.546;2023-09-19T01:16:41;1.77;;;0.52;;
54454;SDS011;40364;52.270;10.546;2023-09-19T01:22:36;1.77;;;0.90;;
54454;SDS011;40364;52.270;10.546;2023-09-19T01:25:19;2.70;;;0.77;;
54454;SDS011;40364;52.270;10.546;2023-09-19T01:31:06;1.52;;;0.93;;
54454;SDS011;40364;52.270;10.546;2023-09-19T01:33:57;1.05;;;0.73;;
54454;SDS011;40364;52.270;10.546;2023-09-19T01:36:30;3.22;;;1.10;;
54454;SDS011;40364;52.270;10.546;2023-09-19T01:39:00;1.42;;;0.93;;
54454;SDS011;40364;52.270;10.546;2023-09-19T01:41:34;1.65;;;1.20;;
54454;SDS011;40364;52.270;10.546;2023-09-19T01:44:09;0.93;;;0.73;;
54454;SDS011;40364;52.270;10.546;2023-09-19T01:46:44;6.35;;;1.00;;
54454;SDS011;40364;52.270;10.546;2023-09-19T01:49:15;1.80;;;0.88;;
54454;SDS011;40364;52.270;10.546;2023-09-19T01:51:56;1.65;;;1.00;;
54454;SDS011;40364;52.270;10.546;2023-09-19T01:54:32;2.03;;;1.10;;
54454;SDS011;40364;52.270;10.546;2023-09-19T01:57:04;1.90;;;0.80;;
54454;SDS011;40364;52.270;10.546;2023-09-19T01:59:37;1.77;;;0.70;;
54454;SDS011;40364;52.270;10.546;2023-09-19T02:02:11;3.95;;;1.20;;
54454;SDS011;40364;52.270;10.546;2023-09-19T02:04:39;3.05;;;1.00;;
54454;SDS011;40364;52.270;10.546;2023-09-19T02:07:06;1.63;;;1.10;;
54454;SDS011;40364;52.270;10.546;2023-09-19T02:09:33;4.10;;;1.05;;
54454;SDS011;40364;52.270;10.546;2023-09-19T02:12:00;2.45;;;1.23;;
54454;SDS011;40364;52.270;10.546;2023-09-19T02:14:27;3.30;;;1.15;;
54454;SDS011;40364;52.270;10.546;2023-09-19T02:16:54;5.45;;;1.20;;
54454;SDS011;40364;52.270;10.546;2023-09-19T02:19:22;2.85;;;1.17;;
54454;SDS011;40364;52.270;10.546;2023-09-19T02:21:49;4.47;;;1.00;;
54454;SDS011;40364;52.270;10.546;2023-09-19T02:24:16;2.22;;;0.90;;
54454;SDS011;40364;52.270;10.546;2023-09-19T02:26:44;3.83;;;1.52;;
54454;SDS011;40364;52.270;10.546;2023-09-19T02:29:10;4.03;;;1.30;;
54454;SDS011;40364;52.270;10.546;2023-09-19T02:31:38;3.50;;;1.17;;
54454;SDS011;40364;52.270;10.546;2023-09-19T02:34:05;3.53;;;1.10;;
54454;SDS011;40364;52.270;10.546;2023-09-19T02:36:36;5.20;;;1.10;;
54454;SDS011;40364;52.270;10.546;2023-09-19T02:39:03;1.63;;;1.08;;
54454;SDS011;40364;52.270;10.546;2023-09-19T02:41:31;3.33;;;1.30;;
54454;SDS011;40364;52.270;10.546;2023-09-19T02:43:58;2.28;;;1.02;;
54454;SDS011;40364;52.270;10.546;2023-09-19T02:46:26;2.08;;;1.10;;
54454;SDS011;40364;52.270;10.546;2023-09-19T02:48:53;3.92;;;1.25;;
54454;SDS011;40364;52.270;10.546;2023-09-19T02:51:21;5.00;;;1.73;;
54454;SDS011;40364;52.270;10.546;2023-09-19T02:53:49;1.33;;;1.00;;
54454;SDS011;40364;52.270;10.546;2023-09-19T02:56:17;4.78;;;1.67;;
54454;SDS011;40364;52.270;10.546;2023-09-19T02:58:44;6.35;;;1.63;;
54454;SDS011;40364;52.270;10.546;2023-09-19T03:01:13;1.95;;;1.42;;
54454;SDS011;40364;52.270;10.546;2023-09-19T03:03:40;4.60;;;1.40;;
54454;SDS011;40364;52.270;10.546;2023-09-19T03:06:07;4.28;;;1.80;;
54454;SDS011;40364;52.270;10.546;2023-09-19T03:08:34;5.20;;;1.58;;
54454;SDS011;40364;52.270;10.546;2023-09-19T03:11:05;2.10;;;1.30;;
54454;SDS011;40364;52.270;10.546;2023-09-19T03:13:37;6.03;;;1.25;;
54454;SDS011;40364;52.270;10.546;2023-09-19T03:16:04;10.40;;;1.63;;
54454;SDS011;40364;52.270;10.546;2023-09-19T03:18:33;4.07;;;1.60;;
54454;SDS011;40364;52.270;10.546;2023-09-19T03:21:00;4.57;;;1.70;;
54454;SDS011;40364;52.270;10.546;2023-09-19T03:23:27;2.42;;;1.83;;
54454;SDS011;40364;52.270;10.546;2023-09-19T03:25:55;8.82;;;1.70;;
54454;SDS011;40364;52.270;10.546;2023-09-19T03:28:25;4.22;;;1.70;;
54454;SDS011;40364;52.270;10.546;2023-09-19T03:30:59;8.95;;;1.80;;
54454;SDS011;40364;52.270;10.546;2023-09-19T03:33:26;6.68;;;1.80;;
54454;SDS011;40364;52.270;10.546;2023-09-19T03:35:53;3.33;;;1.73;;
54454;SDS011;40364;52.270;10.546;2023-09-19T03:38:23;3.22;;;1.83;;
54454;SDS011;40364;52.270;10.546;2023-09-19T03:40:50;4.38;;;1.80;;
54454;SDS011;40364;52.270;10.546;2023-09-19T03:43:17;4.40;;;2.22;;
54454;SDS011;40364;52.270;10.546;2023-09-19T03:45:45;5.30;;;1.90;;
54454;SDS011;40364;52.270;10.546;2023-09-19T03:48:13;4.30;;;1.73;;
54454;SDS011;40364;52.270;10.546;2023-09-19T03:50:40;5.82;;;2.17;;
54454;SDS011;40364;52.270;10.546;2023-09-19T03:53:09;4.40;;;2.22;;
54454;SDS011;40364;52.270;10.546;2023-09-19T03:55:35;8.90;;;2.00;;
54454;SDS011;40364;52.270;10.546;2023-09-19T03:58:03;9.80;;;2.13;;
54454;SDS011;40364;52.270;10.546;2023-09-19T04:00:30;3.58;;;2.25;;
54454;SDS011;40364;52.270;10.546;2023-09-19T04:02:59;4.20;;;2.08;;
54454;SDS011;40364;52.270;10.546;2023-09-19T04:05:30;4.50;;;2.03;;
54454;SDS011;40364;52.270;10.546;2023-09-19T04:07:57;4.90;;;2.17;;
54454;SDS011;40364;52.270;10.546;2023-09-19T04:10:24;2.67;;;2.22;;
54454;SDS011;40364;52.270;10.546;2023-09-19T04:12:50;7.43;;;2.58;;
54454;SDS011;40364;52.270;10.546;2023-09-19T04:15:18;2.60;;;2.20;;
54454;SDS011;40364;52.270;10.546;2023-09-19T04:17:47;5.10;;;2.40;;
54454;SDS011;40364;52.270;10.546;2023-09-19T04:20:15;7.15;;;2.40;;
54454;SDS011;40364;52.270;10.546;2023-09-19T04:22:44;5.13;;;2.45;;
54454;SDS011;40364;52.270;10.546;2023-09-19T04:25:11;5.55;;;2.33;;
54454;SDS011;40364;52.270;10.546;2023-09-19T04:27:37;6.43;;;2.60;;
54454;SDS011;40364;52.270;10.546;2023-09-19T04:30:05;8.30;;;2.45;;
54454;SDS011;40364;52.270;10.546;2023-09-19T04:32:35;5.75;;;2.63;;
54454;SDS011;40364;52.270;10.546;2023-09-19T04:35:05;5.10;;;2.42;;
54454;SDS011;40364;52.270;10.546;2023-09-19T04:37:35;5.85;;;2.88;;
54454;SDS011;40364;52.270;10.546;2023-09-19T04:40:04;9.73;;;3.42;;
54454;SDS011;40364;52.270;10.546;2023-09-19T04:42:37;12.95;;;3.38;;
54454;SDS011;40364;52.270;10.546;2023-09-19T04:45:05;9.75;;;3.47;;
54454;SDS011;40364;52.270;10.546;2023-09-19T04:47:32;6.18;;;3.42;;
54454;SDS011;40364;52.270;10.546;2023-09-19T04:49:58;10.75;;;3.80;;
54454;SDS011;40364;52.270;10.546;2023-09-19T04:52:25;5.55;;;3.83;;
54454;SDS011;40364;52.270;10.546;2023-09-19T04:54:53;8.98;;;4.65;;
54454;SDS011;40364;52.270;10.546;2023-09-19T04:57:20;6.93;;;3.38;;
54454;SDS011;40364;52.270;10.546;2023-09-19T04:59:46;8.10;;;3.60;;
54454;SDS011;40364;52.270;10.546;2023-09-19T05:02:13;7.32;;;3.35;;
54454;SDS011;40364;52.270;10.546;2023-09-19T05:04:39;10.25;;;3.40;;
54454;SDS011;40364;52.270;10.546;2023-09-19T05:07:06;5.95;;;3.00;;
54454;SDS011;40364;52.270;10.546;2023-09-19T05:09:33;8.60;;;3.40;;
54454;SDS011;40364;52.270;10.546;2023-09-19T05:12:04;8.30;;;2.95;;
54454;SDS011;40364;52.270;10.546;2023-09-19T05:14:31;9.88;;;3.10;;
54454;SDS011;40364;52.270;10.546;2023-09-19T05:16:58;11.27;;;3.00;;
54454;SDS011;40364;52.270;10.546;2023-09-19T05:19:24;3.97;;;2.60;;
54454;SDS011;40364;52.270;10.546;2023-09-19T05:21:51;5.63;;;2.75;;
54454;SDS011;40364;52.270;10.546;2023-09-19T05:24:18;6.47;;;2.72;;
54454;SDS011;40364;52.270;10.546;2023-09-19T05:26:44;7.53;;;2.70;;
54454;SDS011;40364;52.270;10.546;2023-09-19T05:29:12;4.72;;;2.60;;
54454;SDS011;40364;52.270;10.546;2023-09-19T05:31:39;5.70;;;2.53;;
54454;SDS011;40364;52.270;10.546;2023-09-19T05:34:08;7.32;;;2.70;;
54454;SDS011;40364;52.270;10.546;2023-09-19T05:36:34;6.47;;;2.70;;
54454;SDS011;40364;52.270;10.546;2023-09-19T05:39:01;8.80;;;2.90;;
54454;SDS011;40364;52.270;10.546;2023-09-19T05:41:28;9.52;;;3.13;;
54454;SDS011;40364;52.270;10.546;2023-09-19T05:43:58;9.18;;;2.85;;
54454;SDS011;40364;52.270;10.546;2023-09-19T05:46:27;3.38;;;2.60;;
54454;SDS011;40364;52.270;10.546;2023-09-19T05:48:54;8.15;;;2.80;;
54454;SDS011;40364;52.270;10.546;2023-09-19T05:51:21;13.10;;;3.15;;
54454;SDS011;40364;52.270;10.546;2023-09-19T05:53:48;6.93;;;2.88;;
54454;SDS011;40364;52.270;10.546;2023-09-19T05:56:15;6.10;;;3.25;;
54454;SDS011;40364;52.270;10.546;2023-09-19T05:58:44;11.85;;;2.88;;
54454;SDS011;40364;52.270;10.546;2023-09-19T06:01:10;7.15;;;3.05;;
54454;SDS011;40364;52.270;10.546;2023-09-19T06:03:38;11.13;;;3.22;;
54454;SDS011;40364;52.270;10.546;2023-09-19T06:06:05;16.35;;;3.47;;
54454;SDS011;40364;52.270;10.546;2023-09-19T06:08:33;7.40;;;3.22;;
54454;SDS011;40364;52.270;10.546;2023-09-19T06:10:59;10.23;;;4.03;;
54454;SDS011;40364;52.270;10.546;2023-09-19T06:13:27;12.82;;;3.28;;
54454;SDS011;40364;52.270;10.546;2023-09-19T06:15:54;11.27;;;3.65;;
54454;SDS011;40364;52.270;10.546;2023-09-19T06:18:21;7.57;;;3.08;;
54454;SDS011;40364;52.270;10.546;2023-09-19T06:20:52;7.47;;;3.03;;
54454;SDS011;40364;52.270;10.546;2023-09-19T06:23:19;6.20;;;3.30;;
54454;SDS011;40364;52.270;10.546;2023-09-19T06:25:48;5.45;;;2.83;;
54454;SDS011;40364;52.270;10.546;2023-09-19T06:28:14;9.27;;;3.13;;
54454;SDS011;40364;52.270;10.546;2023-09-19T06:30:43;9.30;;;3.35;;
54454;SDS011;40364;52.270;10.546;2023-09-19T06:33:10;10.45;;;3.35;;
54454;SDS011;40364;52.270;10.546;2023-09-19T06:35:37;7.63;;;2.90;;
54454;SDS011;40364;52.270;10.546;2023-09-19T06:38:06;15.07;;;3.03;;
54454;SDS011;40364;52.270;10.546;2023-09-19T06:40:33;10.60;;;3.10;;
54454;SDS011;40364;52.270;10.546;2023-09-19T06:43:00;9.63;;;3.25;;
54454;SDS011;40364;52.270;10.546;2023-09-19T06:45:29;12.45;;;3.70;;
54454;SDS011;40364;52.270;10.546;2023-09-19T06:47:57;14.70;;;2.95;;
54454;SDS011;40364;52.270;10.546;2023-09-19T06:50:25;6.07;;;2.85;;
54454;SDS011;40364;52.270;10.546;2023-09-19T06:52:53;10.20;;;3.95;;
54454;SDS011;40364;52.270;10.546;2023-09-19T06:55:23;9.07;;;3.35;;
54454;SDS011;40364;52.270;10.546;2023-09-19T06:57:52;10.48;;;2.20;;
54454;SDS011;40364;52.270;10.546;2023-09-19T07:00:20;11.43;;;3.00;;
54454;SDS011;40364;52.270;10.546;2023-09-19T07:02:54;8.65;;;2.47;;
54454;SDS011;40364;52.270;10.546;2023-09-19T07:05:22;6.53;;;2.60;;
54454;SDS011;40364;52.270;10.546;2023-09-19T07:07:49;7.72;;;2.35;;
54454;SDS011;40364;52.270;10.546;2023-09-19T07:10:15;7.65;;;2.55;;
54454;SDS011;40364;52.270;10.546;2023-09-19T07:12:44;12.80;;;2.55;;
54454;SDS011;40364;52.270;10.546;2023-09-19T07:15:11;7.75;;;2.63;;
54454;SDS011;40364;52.270;10.546;2023-09-19T07:17:38;12.10;;;2.70;;
54454;SDS011;40364;52.270;10.546;2023-09-19T07:20:05;8.45;;;2.42;;
54454;SDS011;40364;52.270;10.546;2023-09-19T07:22:33;10.38;;;2.85;;
54454;SDS011;40364;52.270;10.546;2023-09-19T07:25:00;10.90;;;2.72;;
54454;SDS011;40364;52.270;10.546;2023-09-19T07:27:26;12.82;;;2.70;;
54454;SDS011;40364;52.270;10.546;2023-09-19T07:29:54;7.35;;;2.35;;
54454;SDS011;40364;52.270;10.546;2023-09-19T07:32:21;7.07;;;2.70;;
54454;SDS011;40364;52.270;10.546;2023-09-19T07:34:48;9.43;;;2.40;;
54454;SDS011;40364;52.270;10.546;2023-09-19T07:37:15;6.07;;;2.05;;
54454;SDS011;40364;52.270;10.546;2023-09-19T07:39:41;8.75;;;1.88;;
54454;SDS011;40364;52.270;10.546;2023-09-19T07:42:09;10.35;;;2.83;;
54454;SDS011;40364;52.270;10.546;2023-09-19T07:44:42;10.23;;;2.28;;
54454;SDS011;40364;52.270;10.546;2023-09-19T07:47:13;6.60;;;1.92;;
54454;SDS011;40364;52.270;10.546;2023-09-19T07:49:40;8.07;;;2.00;;
54454;SDS011;40364;52.270;10.546;2023-09-19T07:52:07;8.35;;;2.55;;
54454;SDS011;40364;52.270;10.546;2023-09-19T07:54:35;10.90;;;2.35;;
54454;SDS011;40364;52.270;10.546;2023-09-19T07:57:04;17.20;;;2.05;;
54454;SDS011;40364;52.270;10.546;2023-09-19T07:59:30;10.65;;;2.35;;
54454;SDS011;40364;52.270;10.546;2023-09-19T08:01:57;9.32;;;2.10;;
54454;SDS011;40364;52.270;10.546;2023-09-19T08:04:25;9.00;;;1.80;;
54454;SDS011;40364;52.270;10.546;2023-09-19T08:06:52;7.47;;;1.80;;
54454;SDS011;40364;52.270;10.546;2023-09-19T08:09:20;10.88;;;2.28;;
54454;SDS011;40364;52.270;10.546;2023-09-19T08:11:47;10.10;;;1.77;;
54454;SDS011;40364;52.270;10.546;2023-09-19T08:14:15;10.13;;;1.58;;
54454;SDS011;40364;52.270;10.546;2023-09-19T08:16:42;12.07;;;2.17;;
54454;SDS011;40364;52.270;10.546;2023-09-19T08:19:09;11.35;;;1.85;;
54454;SDS011;40364;52.270;10.546;2023-09-19T08:21:37;4.88;;;1.13;;
54454;SDS011;40364;52.270;10.546;2023-09-19T08:24:04;12.27;;;2.10;;
54454;SDS011;40364;52.270;10.546;2023-09-19T08:26:31;8.32;;;1.50;;
54454;SDS011;40364;52.270;10.546;2023-09-19T08:28:58;8.10;;;1.98;;
54454;SDS011;40364;52.270;10.546;2023-09-19T08:31:29;9.85;;;1.48;;
54454;SDS011;40364;52.270;10.546;2023-09-19T08:33:56;12.63;;;1.92;;
54454;SDS011;40364;52.270;10.546;2023-09-19T08:36:23;8.32;;;2.17;;
54454;SDS011;40364;52.270;10.546;2023-09-19T08:38:51;9.50;;;1.48;;
54454;SDS011;40364;52.270;10.546;2023-09-19T08:41:17;8.00;;;2.10;;
54454;SDS011;40364;52.270;10.546;2023-09-19T08:43:44;9.15;;;1.50;;
54454;SDS011;40364;52.270;10.546;2023-09-19T08:46:14;3.75;;;1.30;;
54454;SDS011;40364;52.270;10.546;2023-09-19T08:48:44;8.65;;;1.77;;
54454;SDS011;40364;52.270;10.546;2023-09-19T08:51:17;8.68;;;1.55;;
54454;SDS011;40364;52.270;10.546;2023-09-19T08:53:51;10.52;;;1.48;;
54454;SDS011;40364;52.270;10.546;2023-09-19T08:56:25;8.35;;;1.50;;
54454;SDS011;40364;52.270;10.546;2023-09-19T08:58:55;13.38;;;1.92;;
54454;SDS011;40364;52.270;10.546;2023-09-19T09:01:26;12.88;;;1.67;;
54454;SDS011;40364;52.270;10.546;2023-09-19T09:03:54;7.47;;;1.30;;
54454;SDS011;40364;52.270;10.546;2023-09-19T09:06:22;12.52;;;1.40;;
54454;SDS011;40364;52.270;10.546;2023-09-19T09:08:50;3.97;;;1.20;;
54454;SDS011;40364;52.270;10.546;2023-09-19T09:11:18;6.57;;;1.67;;
54454;SDS011;40364;52.270;10.546;2023-09-19T09:13:46;8.60;;;1.58;;
54454;SDS011;40364;52.270;10.546;2023-09-19T09:16:13;6.82;;;1.48;;
54454;SDS011;40364;52.270;10.546;2023-09-19T09:18:42;6.70;;;1.40;;
54454;SDS011;40364;52.270;10.546;2023-09-19T09:21:09;7.68;;;1.63;;
54454;SDS011;40364;52.270;10.546;2023-09-19T09:23:36;9.00;;;1.48;;
54454;SDS011;40364;52.270;10.546;2023-09-19T09:26:03;8.13;;;1.40;;
54454;SDS011;40364;52.270;10.546;2023-09-19T09:28:33;11.52;;;1.52;;
54454;SDS011;40364;52.270;10.546;2023-09-19T09:31:04;13.23;;;1.40;;
54454;SDS011;40364;52.270;10.546;2023-09-19T09:33:34;5.38;;;1.30;;
54454;SDS011;40364;52.270;10.546;2023-09-19T09:36:01;6.50;;;1.80;;
54454;SDS011;40364;52.270;10.546;2023-09-19T09:38:42;6.97;;;1.88;;
54454;SDS011;40364;52.270;10.546;2023-09-19T09:41:10;3.13;;;1.08;;
54454;SDS011;40364;52.270;10.546;2023-09-19T09:43:53;6.50;;;1.50;;
54454;SDS011;40364;52.270;10.546;2023-09-19T09:46:20;5.85;;;1.10;;
54454;SDS011;40364;52.270;10.546;2023-09-19T09:49:10;11.65;;;1.60;;
54454;SDS011;40364;52.270;10.546;2023-09-19T09:51:58;7.75;;;1.70;;
54454;SDS011;40364;52.270;10.546;2023-09-19T09:54:29;7.90;;;1.00;;
54454;SDS011;40364;52.270;10.546;2023-09-19T09:57:02;7.55;;;1.30;;
54454;SDS011;40364;52.270;10.546;2023-09-19T09:59:46;7.53;;;1.15;;
54454;SDS011;40364;52.270;10.546;2023-09-19T10:02:15;7.78;;;1.58;;
54454;SDS011;40364;52.270;10.546;2023-09-19T10:04:48;8.88;;;1.15;;
54454;SDS011;40364;52.270;10.546;2023-09-19T10:07:24;7.72;;;1.15;;
54454;SDS011;40364;52.270;10.546;2023-09-19T10:09:54;6.70;;;1.27;;
54454;SDS011;40364;52.270;10.546;2023-09-19T10:12:29;4.30;;;1.10;;
54454;SDS011;40364;52.270;10.546;2023-09-19T10:14:59;8.73;;;1.40;;
54454;SDS011;40364;52.270;10.546;2023-09-19T10:17:29;10.63;;;1.60;;
54454;SDS011;40364;52.270;10.546;2023-09-19T10:19:57;7.57;;;1.75;;
54454;SDS011;40364;52.270;10.546;2023-09-19T10:22:30;7.57;;;1.50;;
54454;SDS011;40364;52.270;10.546;2023-09-19T10:25:00;5.18;;;1.48;;
54454;SDS011;40364;52.270;10.546;2023-09-19T10:27:32;6.50;;;1.65;;
54454;SDS011;40364;52.270;10.546;2023-09-19T10:30:05;8.13;;;1.98;;
54454;SDS011;40364;52.270;10.546;2023-09-19T10:32:34;8.30;;;1.80;;
54454;SDS011;40364;52.270;10.546;2023-09-19T10:35:02;7.13;;;1.40;;
54454;SDS011;40364;52.270;10.546;2023-09-19T10:37:32;7.95;;;2.03;;
54454;SDS011;40364;52.270;10.546;2023-09-19T10:40:03;8.68;;;1.67;;
54454;SDS011;40364;52.270;10.546;2023-09-19T10:42:33;7.53;;;1.33;;
54454;SDS011;40364;52.270;10.546;2023-09-19T10:45:06;5.85;;;1.92;;
54454;SDS011;40364;52.270;10.546;2023-09-19T10:47:38;3.88;;;1.05;;
54454;SDS011;40364;52.270;10.546;2023-09-19T10:50:05;9.73;;;2.13;;
54454;SDS011;40364;52.270;10.546;2023-09-19T10:52:38;2.90;;;1.55;;
54454;SDS011;40364;52.270;10.546;2023-09-19T10:55:11;9.18;;;1.33;;
54454;SDS011;40364;52.270;10.546;2023-09-19T10:57:44;3.60;;;1.17;;
54454;SDS011;40364;52.270;10.546;2023-09-19T11:00:13;8.52;;;1.80;;
54454;SDS011;40364;52.270;10.546;2023-09-19T11:03:16;8.13;;;1.73;;
54454;SDS011;40364;52.270;10.546;2023-09-19T11:05:43;10.75;;;1.40;;
54454;SDS011;40364;52.270;10.546;2023-09-19T11:08:29;5.05;;;1.30;;
54454;SDS011;40364;52.270;10.546;2023-09-19T11:10:57;10.20;;;2.13;;
54454;SDS011;40364;52.270;10.546;2023-09-19T11:13:24;3.50;;;1.30;;
54454;SDS011;40364;52.270;10.546;2023-09-19T11:18:52;7.60;;;1.77;;
54454;SDS011;40364;52.270;10.546;2023-09-19T11:27:08;6.93;;;1.27;;
54454;SDS011;40364;52.270;10.546;2023-09-19T11:29:40;10.75;;;2.00;;
54454;SDS011;40364;52.270;10.546;2023-09-19T11:32:08;7.18;;;1.50;;
54454;SDS011;40364;52.270;10.546;2023-09-19T11:34:45;5.63;;;1.50;;
54454;SDS011;40364;52.270;10.546;2023-09-19T11:40:44;9.27;;;1.65;;
54454;SDS011;40364;52.270;10.546;2023-09-19T11:43:30;7.65;;;1.55;;
54454;SDS011;40364;52.270;10.546;2023-09-19T11:46:01;4.57;;;1.73;;
54454;SDS011;40364;52.270;10.546;2023-09-19T11:48:33;8.20;;;1.63;;
54454;SDS011;40364;52.270;10.546;2023-09-19T11:51:08;4.80;;;1.55;;
54454;SDS011;40364;52.270;10.546;2023-09-19T11:53:47;11.27;;;1.90;;
54454;SDS011;40364;52.270;10.546;2023-09-19T11:56:15;6.40;;;1.80;;
54454;SDS011;40364;52.270;10.546;2023-09-19T11:58:43;6.03;;;1.83;;
54454;SDS011;40364;52.270;10.546;2023-09-19T12:01:12;5.50;;;2.13;;
54454;SDS011;40364;52.270;10.546;2023-09-19T12:03:47;5.40;;;1.67;;
54454;SDS011;40364;52.270;10.546;2023-09-19T12:06:19;9.07;;;1.70;;
54454;SDS011;40364;52.270;10.546;2023-09-19T12:08:47;10.45;;;2.10;;
54454;SDS011;40364;52.270;10.546;2023-09-19T12:11:15;12.40;;;1.90;;
54454;SDS011;40364;52.270;10.546;2023-09-19T12:13:43;6.50;;;1.83;;
54454;SDS011;40364;52.270;10.546;2023-09-19T12:16:12;8.75;;;1.90;;
54454;SDS011;40364;52.270;10.546;2023-09-19T12:18:41;10.95;;;1.67;;
54454;SDS011;40364;52.270;10.546;2023-09-19T12:21:22;6.30;;;1.50;;
54454;SDS011;40364;52.270;10.546;2023-09-19T12:23:57;6.47;;;1.95;;
54454;SDS011;40364;52.270;10.546;2023-09-19T12:26:39;5.60;;;1.83;;
54454;SDS011;40364;52.270;10.546;2023-09-19T12:29:10;7.45;;;1.77;;
54454;SDS011;40364;52.270;10.546;2023-09-19T12:31:46;8.40;;;1.98;;
54454;SDS011;40364;52.270;10.546;2023-09-19T12:34:19;4.72;;;1.83;;
54454;SDS011;40364;52.270;10.546;2023-09-19T12:36:47;14.85;;;2.20;;
54454;SDS011;40364;52.270;10.546;2023-09-19T12:39:24;4.80;;;1.67;;
54454;SDS011;40364;52.270;10.546;2023-09-19T12:41:52;8.43;;;1.60;;
54454;SDS011;40364;52.270;10.546;2023-09-19T12:44:19;8.45;;;1.98;;
54454;SDS011;40364;52.270;10.546;2023-09-19T12:46:46;8.73;;;2.60;;
54454;SDS011;40364;52.270;10.546;2023-09-19T12:49:16;7.63;;;1.60;;
54454;SDS011;40364;52.270;10.546;2023-09-19T12:51:44;5.38;;;1.70;;
54454;SDS011;40364;52.270;10.546;2023-09-19T12:54:13;6.90;;;1.92;;
54454;SDS011;40364;52.270;10.546;2023-09-19T12:56:42;2.42;;;1.50;;
54454;SDS011;40364;52.270;10.546;2023-09-19T12:59:12;7.95;;;3.20;;
54454;SDS011;40364;52.270;10.546;2023-09-19T13:01:39;7.45;;;1.77;;
54454;SDS011;40364;52.270;10.546;2023-09-19T13:04:10;9.98;;;1.60;;
54454;SDS011;40364;52.270;10.546;2023-09-19T13:06:40;7.80;;;1.88;;
54454;SDS011;40364;52.270;10.546;2023-09-19T13:09:08;4.65;;;1.60;;
54454;SDS011;40364;52.270;10.546;2023-09-19T13:11:38;4.57;;;1.55;;
54454;SDS011;40364;52.270;10.546;2023-09-19T13:14:16;12.18;;;1.90;;
54454;SDS011;40364;52.270;10.546;2023-09-19T13:16:57;8.55;;;2.13;;
54454;SDS011;40364;52.270;10.546;2023-09-19T13:19:40;9.88;;;1.98;;
54454;SDS011;40364;52.270;10.546;2023-09-19T13:25:04;5.38;;;1.70;;
54454;SDS011;40364;52.270;10.546;2023-09-19T13:27:33;4.90;;;1.63;;
54454;SDS011;40364;52.270;10.546;2023-09-19T13:29:59;3.83;;;1.60;;
54454;SDS011;40364;52.270;10.546;2023-09-19T13:32:26;5.50;;;1.63;;
54454;SDS011;40364;52.270;10.546;2023-09-19T13:34:53;4.10;;;1.55;;
54454;SDS011;40364;52.270;10.546;2023-09-19T13:37:20;4.38;;;1.60;;
54454;SDS011;40364;52.270;10.546;2023-09-19T13:39:47;7.90;;;1.70;;
54454;SDS011;40364;52.270;10.546;2023-09-19T13:42:13;6.05;;;1.67;;
54454;SDS011;40364;52.270;10.546;2023-09-19T13:44:43;8.48;;;1.77;;
54454;SDS011;40364;52.270;10.546;2023-09-19T13:47:09;6.32;;;1.90;;
54454;SDS011;40364;52.270;10.546;2023-09-19T13:49:38;7.20;;;1.98;;
54454;SDS011;40364;52.270;10.546;2023-09-19T13:52:05;4.32;;;1.70;;
54454;SDS011;40364;52.270;10.546;2023-09-19T13:54:32;7.78;;;1.55;;
54454;SDS011;40364;52.270;10.546;2023-09-19T13:56:59;10.65;;;2.10;;
54454;SDS011;40364;52.270;10.546;2023-09-19T13:59:26;6.28;;;2.15;;
54454;SDS011;40364;52.270;10.546;2023-09-19T14:01:55;9.45;;;1.70;;
54454;SDS011;40364;52.270;10.546;2023-09-19T14:04:22;4.35;;;1.58;;
54454;SDS011;40364;52.270;10.546;2023-09-19T14:06:48;3.63;;;1.50;;
54454;SDS011;40364;52.270;10.546;2023-09-19T14:09:15;5.22;;;1.80;;
54454;SDS011;40364;52.270;10.546;2023-09-19T14:11:44;3.83;;;1.98;;
54454;SDS011;40364;52.270;10.546;2023-09-19T14:14:13;5.07;;;1.90;;
54454;SDS011;40364;52.270;10.546;2023-09-19T14:16:40;4.78;;;1.70;;
54454;SDS011;40364;52.270;10.546;2023-09-19T14:19:08;7.28;;;1.75;;
54454;SDS011;40364;52.270;10.546;2023-09-19T14:21:35;8.00;;;1.83;;
54454;SDS011;40364;52.270;10.546;2023-09-19T14:24:04;6.00;;;1.88;;
54454;SDS011;40364;52.270;10.546;2023-09-19T14:26:34;7.40;;;1.95;;
54454;SDS011;40364;52.270;10.546;2023-09-19T14:29:00;6.88;;;2.35;;
54454;SDS011;40364;52.270;10.546;2023-09-19T14:31:27;8.07;;;1.52;;
54454;SDS011;40364;52.270;10.546;2023-09-19T14:33:54;3.38;;;1.35;;
54454;SDS011;40364;52.270;10.546;2023-09-19T14:36:23;5.72;;;1.77;;
54454;SDS011;40364;52.270;10.546;2023-09-19T14:38:52;4.30;;;1.60;;
54454;SDS011;40364;52.270;10.546;2023-09-19T14:41:19;7.53;;;1.75;;
54454;SDS011;40364;52.270;10.546;2023-09-19T14:43:46;6.00;;;1.77;;
54454;SDS011;40364;52.270;10.546;2023-09-19T14:46:13;7.22;;;1.40;;
54454;SDS011;40364;52.270;10.546;2023-09-19T14:48:41;6.07;;;1.83;;
54454;SDS011;40364;52.270;10.546;2023-09-19T14:51:08;5.45;;;1.73;;
54454;SDS011;40364;52.270;10.546;2023-09-19T14:53:38;4.32;;;1.52;;
54454;SDS011;40364;52.270;10.546;2023-09-19T14:56:06;5.47;;;1.73;;
54454;SDS011;40364;52.270;10.546;2023-09-19T14:58:34;6.45;;;1.75;;
54454;SDS011;40364;52.270;10.546;2023-09-19T15:01:02;8.65;;;1.83;;
54454;SDS011;40364;52.270;10.546;2023-09-19T15:03:31;6.30;;;1.92;;
54454;SDS011;40364;52.270;10.546;2023-09-19T15:05:58;6.63;;;1.85;;